KHLB/HLB METAR and TAF weather

Enter ICAO airport designator
Station Type Date Time Source
KHLB METAR 2020/08/15 15:55 UTC NOAA

KHLB 151555Z AUTO 00000KT 10SM CLR 26/20 A2996 RMK A01


Station Type Date Time Source
KHLB Decoded METAR 2020/08/15 15:55 UTC NOAA

Station name not available
Aug 15, 2020 - 11:55 AM EDT / 2020.08.15 1555 UTC
Wind: Calm:0
Visibility: 10 mile(s):0
Sky conditions: clear
Temperature: 78 F (26 C)
Dew Point: 68 F (20 C)
Relative Humidity: 69%
Pressure (altimeter): 29.96 in. Hg (1014 hPa)
ob: KHLB 151555Z AUTO 00000KT 10SM CLR 26/20 A2996 RMK A01
cycle: 16

Station Type Date Time Source
KHLB TAF UTC NOAA

Error!

Example: see airport list